createdAt,value
2022-10-01T00:00:52.775Z,951.07
2022-10-01T00:01:52.795Z,951.07
2022-10-01T00:02:52.810Z,951.06
2022-10-01T00:03:52.756Z,951.09
2022-10-01T00:04:52.799Z,951.05
2022-10-01T00:05:52.727Z,951.07
2022-10-01T00:06:52.738Z,951.08
2022-10-01T00:07:52.715Z,951.14
2022-10-01T00:08:52.670Z,951.08
2022-10-01T00:09:52.647Z,951.15
2022-10-01T00:10:52.648Z,951.08
2022-10-01T00:11:52.626Z,951.13
2022-10-01T00:12:52.646Z,951.07
2022-10-01T00:13:52.606Z,951.11
2022-10-01T00:14:52.611Z,951.15
2022-10-01T00:15:52.587Z,951.07
2022-10-01T00:16:52.691Z,951.19
2022-10-01T00:17:52.650Z,951.13
2022-10-01T00:18:52.588Z,951.20
2022-10-01T00:19:52.592Z,951.17
2022-10-01T00:20:52.606Z,951.20
2022-10-01T00:21:52.524Z,951.25
2022-10-01T00:22:52.542Z,951.22
2022-10-01T00:23:52.565Z,951.24
2022-10-01T00:24:52.535Z,951.22
2022-10-01T00:25:52.475Z,951.17
2022-10-01T00:26:52.474Z,951.25
2022-10-01T00:27:52.507Z,951.22
2022-10-01T00:28:52.436Z,951.22
2022-10-01T00:29:52.464Z,951.25
2022-10-01T00:30:52.414Z,951.22
2022-10-01T00:31:52.496Z,951.21
2022-10-01T00:32:52.426Z,951.23
2022-10-01T00:33:52.402Z,951.21
2022-10-01T00:34:52.374Z,951.17
2022-10-01T00:35:52.385Z,951.13
2022-10-01T00:36:52.384Z,951.11
2022-10-01T00:37:52.374Z,950.99
2022-10-01T00:38:52.334Z,951.04
2022-10-01T00:39:52.315Z,951.08
2022-10-01T00:40:52.322Z,951.13
2022-10-01T00:41:52.371Z,951.19
2022-10-01T00:42:52.332Z,951.19
2022-10-01T00:43:52.274Z,951.17
2022-10-01T00:44:52.262Z,951.25
2022-10-01T00:45:52.326Z,951.20
2022-10-01T00:46:52.238Z,951.10
2022-10-01T00:47:52.225Z,951.17
2022-10-01T00:48:52.240Z,951.13
2022-10-01T00:49:53.331Z,951.15
2022-10-01T00:50:52.198Z,951.16
2022-10-01T00:51:52.191Z,951.11
2022-10-01T00:52:52.183Z,951.15
2022-10-01T00:53:52.160Z,951.17
2022-10-01T00:54:52.154Z,951.15
2022-10-01T00:55:52.129Z,951.18
2022-10-01T00:56:52.149Z,951.12
2022-10-01T00:57:52.127Z,951.14
2022-10-01T00:58:52.111Z,951.15
2022-10-01T00:59:52.080Z,951.15
2022-10-01T01:00:52.114Z,951.18
2022-10-01T01:01:52.227Z,951.13
2022-10-01T01:02:52.047Z,951.12
2022-10-01T01:03:52.058Z,951.07
2022-10-01T01:04:52.026Z,951.13
2022-10-01T01:05:52.019Z,951.12
2022-10-01T01:06:52.005Z,951.08
2022-10-01T01:07:51.998Z,951.03
2022-10-01T01:08:51.979Z,951.12
2022-10-01T01:09:52.007Z,951.17
2022-10-01T01:10:51.968Z,951.12
2022-10-01T01:11:51.975Z,951.16
2022-10-01T01:12:51.927Z,951.16
2022-10-01T01:13:51.948Z,951.18
2022-10-01T01:14:51.924Z,951.17
2022-10-01T01:15:51.963Z,951.15
2022-10-01T01:16:51.888Z,951.19
2022-10-01T01:17:51.897Z,951.19
2022-10-01T01:18:51.882Z,951.12
2022-10-01T01:19:51.874Z,951.12
2022-10-01T01:20:51.847Z,951.13
2022-10-01T01:21:51.853Z,951.12
2022-10-01T01:22:51.826Z,951.06
2022-10-01T01:23:51.816Z,951.07
2022-10-01T01:24:51.837Z,951.09
2022-10-01T01:25:51.786Z,951.02
2022-10-01T01:26:51.797Z,951.05
2022-10-01T01:27:51.818Z,951.01
2022-10-01T01:28:51.776Z,951.09
2022-10-01T01:29:51.757Z,951.04
2022-10-01T01:30:51.779Z,951.09
2022-10-01T01:31:51.724Z,951.08
2022-10-01T01:32:51.759Z,951.07
2022-10-01T01:33:51.765Z,951.03
2022-10-01T01:34:51.692Z,951.07
2022-10-01T01:35:51.696Z,951.03
2022-10-01T01:36:51.697Z,951.06
2022-10-01T01:37:51.643Z,951.03
2022-10-01T01:38:51.672Z,951.07
2022-10-01T01:39:51.642Z,951.03
2022-10-01T01:40:51.675Z,950.99
2022-10-01T01:41:51.602Z,951.04
2022-10-01T01:42:51.622Z,951.04
2022-10-01T01:43:51.611Z,950.98
2022-10-01T01:44:51.575Z,951.04
2022-10-01T01:45:51.582Z,951.08
2022-10-01T01:46:51.551Z,951.05
2022-10-01T01:47:51.551Z,951.12
2022-10-01T01:48:51.561Z,951.11
2022-10-01T01:49:51.561Z,951.07
2022-10-01T01:50:51.523Z,951.09
2022-10-01T01:51:51.549Z,951.12
2022-10-01T01:52:51.514Z,951.07
2022-10-01T01:53:51.478Z,950.98
2022-10-01T01:54:51.495Z,950.99
2022-10-01T01:55:51.449Z,951.01
2022-10-01T01:56:51.441Z,951.00
2022-10-01T01:57:51.446Z,951.02
2022-10-01T01:58:51.428Z,951.05
2022-10-01T01:59:51.420Z,951.02
2022-10-01T02:00:51.456Z,951.02
2022-10-01T02:01:51.472Z,951.03
2022-10-01T02:02:51.436Z,951.02
2022-10-01T02:03:51.358Z,951.01
2022-10-01T02:04:51.366Z,951.03
2022-10-01T02:05:51.337Z,951.00
2022-10-01T02:06:51.367Z,951.01
2022-10-01T02:07:51.328Z,951.02
2022-10-01T02:08:51.308Z,951.03
2022-10-01T02:09:51.315Z,951.01
2022-10-01T02:10:51.279Z,951.00
2022-10-01T02:11:51.265Z,951.01
2022-10-01T02:12:51.286Z,950.99
2022-10-01T02:13:51.287Z,950.97
2022-10-01T02:14:51.266Z,951.01
2022-10-01T02:15:51.325Z,950.97
2022-10-01T02:16:51.288Z,951.01
2022-10-01T02:17:51.264Z,951.01
2022-10-01T02:18:51.185Z,950.97
2022-10-01T02:19:51.173Z,950.98
2022-10-01T02:20:51.167Z,950.89
2022-10-01T02:21:51.145Z,950.88
2022-10-01T02:22:51.144Z,950.81
2022-10-01T02:23:51.154Z,950.83
2022-10-01T02:24:51.120Z,950.81
2022-10-01T02:25:51.131Z,950.87
2022-10-01T02:26:51.094Z,950.86
2022-10-01T02:27:51.113Z,950.84
2022-10-01T02:28:51.070Z,950.87
2022-10-01T02:29:51.081Z,950.86
2022-10-01T02:30:51.105Z,950.84
2022-10-01T02:31:51.053Z,950.87
2022-10-01T02:32:51.052Z,950.87
2022-10-01T02:33:51.059Z,950.94
2022-10-01T02:34:51.071Z,950.83
2022-10-01T02:35:51.061Z,950.81
2022-10-01T02:36:50.993Z,950.74
2022-10-01T02:37:50.991Z,950.80
2022-10-01T02:38:50.962Z,950.78
2022-10-01T02:39:51.015Z,950.72
2022-10-01T02:40:50.963Z,950.71
2022-10-01T02:41:50.922Z,950.76
2022-10-01T02:42:50.912Z,950.70
2022-10-01T02:43:50.911Z,950.69
2022-10-01T02:44:50.900Z,950.71
2022-10-01T02:45:50.951Z,950.69
2022-10-01T02:46:50.870Z,950.66
2022-10-01T02:47:50.850Z,950.58
2022-10-01T02:48:50.826Z,950.62
2022-10-01T02:49:50.816Z,950.62
2022-10-01T02:50:50.820Z,950.68
2022-10-01T02:51:50.806Z,950.66
2022-10-01T02:52:50.784Z,950.64
2022-10-01T02:53:50.757Z,950.61
2022-10-01T02:54:50.748Z,950.67
2022-10-01T02:55:50.736Z,950.63
2022-10-01T02:56:54.243Z,950.63
2022-10-01T02:57:51.726Z,950.65
2022-10-01T02:58:50.705Z,950.73
2022-10-01T02:59:50.708Z,950.64
2022-10-01T03:00:50.687Z,950.63
2022-10-01T03:01:50.920Z,950.65
2022-10-01T03:02:50.694Z,950.69
2022-10-01T03:03:50.653Z,950.72
2022-10-01T03:04:50.654Z,950.63
2022-10-01T03:05:50.623Z,950.67
2022-10-01T03:06:50.622Z,950.65
2022-10-01T03:07:50.613Z,950.58
2022-10-01T03:08:50.594Z,950.65
2022-10-01T03:09:50.602Z,950.64
2022-10-01T03:10:50.585Z,950.65
2022-10-01T03:11:50.570Z,950.70
2022-10-01T03:12:50.554Z,950.69
2022-10-01T03:13:50.536Z,950.71
2022-10-01T03:14:50.523Z,950.68
2022-10-01T03:15:50.551Z,950.61
2022-10-01T03:16:50.509Z,950.64
2022-10-01T03:17:50.482Z,950.60
2022-10-01T03:18:50.487Z,950.63
2022-10-01T03:19:50.461Z,950.64
2022-10-01T03:20:50.460Z,950.66
2022-10-01T03:21:50.470Z,950.61
2022-10-01T03:22:50.431Z,950.64
2022-10-01T03:23:50.431Z,950.62
2022-10-01T03:24:50.428Z,950.62
2022-10-01T03:25:50.417Z,950.64
2022-10-01T03:26:50.422Z,950.62
2022-10-01T03:27:50.470Z,950.58
2022-10-01T03:28:50.390Z,950.54
2022-10-01T03:29:50.360Z,950.58
2022-10-01T03:30:50.349Z,950.56
2022-10-01T03:31:50.428Z,950.47
2022-10-01T03:32:50.340Z,950.49
2022-10-01T03:34:11.329Z,950.49
2022-10-01T03:34:50.296Z,950.45
2022-10-01T03:35:50.287Z,950.49
2022-10-01T03:36:50.268Z,950.44
2022-10-01T03:37:50.289Z,950.43
2022-10-01T03:38:50.258Z,950.43
2022-10-01T03:39:50.239Z,950.48
2022-10-01T03:40:50.238Z,950.36
2022-10-01T03:41:50.216Z,950.39
2022-10-01T03:42:50.200Z,950.44
2022-10-01T03:43:50.210Z,950.35
2022-10-01T03:44:50.185Z,950.42
2022-10-01T03:45:50.230Z,950.38
2022-10-01T03:46:50.176Z,950.32
2022-10-01T03:47:50.147Z,950.34
2022-10-01T03:48:50.147Z,950.31
2022-10-01T03:49:50.146Z,950.32
2022-10-01T03:50:50.127Z,950.35
2022-10-01T03:51:50.116Z,950.37
2022-10-01T03:52:50.138Z,950.27
2022-10-01T03:53:50.106Z,950.29
2022-10-01T03:54:50.085Z,950.30
2022-10-01T03:55:50.095Z,950.31
2022-10-01T03:56:50.055Z,950.33
2022-10-01T03:57:50.055Z,950.35
2022-10-01T03:58:50.055Z,950.31
2022-10-01T03:59:50.021Z,950.37
2022-10-01T04:00:50.026Z,950.44
2022-10-01T04:01:50.073Z,950.41
2022-10-01T04:02:50.210Z,950.37
2022-10-01T04:03:49.977Z,950.42
2022-10-01T04:04:50.003Z,950.35
2022-10-01T04:05:49.964Z,950.35
2022-10-01T04:06:49.941Z,950.34
2022-10-01T04:07:49.966Z,950.34
2022-10-01T04:08:49.919Z,950.36
2022-10-01T04:09:49.916Z,950.37
2022-10-01T04:10:49.983Z,950.34
2022-10-01T04:11:49.971Z,950.41
2022-10-01T04:12:49.861Z,950.38
2022-10-01T04:13:49.881Z,950.42
2022-10-01T04:14:49.854Z,950.43
2022-10-01T04:15:49.891Z,950.46
2022-10-01T04:16:49.839Z,950.46
2022-10-01T04:17:49.860Z,950.46
2022-10-01T04:18:49.804Z,950.52
2022-10-01T04:19:49.801Z,950.50
2022-10-01T04:20:49.770Z,950.55
2022-10-01T04:21:49.782Z,950.51
2022-10-01T04:22:49.750Z,950.49
2022-10-01T04:23:49.753Z,950.51
2022-10-01T04:24:49.752Z,950.48
2022-10-01T04:25:49.738Z,950.49
2022-10-01T04:26:49.707Z,950.50
2022-10-01T04:27:49.777Z,950.51
2022-10-01T04:28:49.688Z,950.57
2022-10-01T04:29:49.678Z,950.56
2022-10-01T04:30:49.691Z,950.52
2022-10-01T04:31:49.667Z,950.58
2022-10-01T04:32:49.651Z,950.54
2022-10-01T04:33:49.639Z,950.62
2022-10-01T04:34:49.667Z,950.59
2022-10-01T04:35:49.638Z,950.64
2022-10-01T04:36:49.612Z,950.58
2022-10-01T04:37:49.597Z,950.55
2022-10-01T04:38:49.588Z,950.58
2022-10-01T04:39:49.588Z,950.58
2022-10-01T04:40:49.721Z,950.59
2022-10-01T04:41:49.582Z,950.59
2022-10-01T04:42:49.547Z,950.63
2022-10-01T04:43:49.506Z,950.55
2022-10-01T04:44:49.511Z,950.59
2022-10-01T04:45:49.495Z,950.60
2022-10-01T04:46:49.566Z,950.59
2022-10-01T04:47:49.495Z,950.62
2022-10-01T04:48:49.477Z,950.57
2022-10-01T04:49:49.466Z,950.58
2022-10-01T04:50:49.486Z,950.59
2022-10-01T04:51:49.437Z,950.52
2022-10-01T04:52:49.495Z,950.56
2022-10-01T04:53:49.491Z,950.51
2022-10-01T04:54:49.425Z,950.53
2022-10-01T04:55:49.384Z,950.52
2022-10-01T04:56:49.414Z,950.49
2022-10-01T04:57:49.403Z,950.54
2022-10-01T04:58:58.667Z,950.49
2022-10-01T04:59:49.337Z,950.54
2022-10-01T05:00:49.367Z,950.47
2022-10-01T05:01:49.364Z,950.47
2022-10-01T05:02:49.327Z,950.49
2022-10-01T05:03:49.287Z,950.45
2022-10-01T05:04:49.287Z,950.42
2022-10-01T05:05:49.266Z,950.42
2022-10-01T05:06:49.269Z,950.41
2022-10-01T05:07:49.258Z,950.43
2022-10-01T05:08:49.250Z,950.44
2022-10-01T05:09:49.237Z,950.42
2022-10-01T05:10:49.216Z,950.44
2022-10-01T05:11:49.196Z,950.45
2022-10-01T05:12:49.216Z,950.44
2022-10-01T05:13:49.178Z,950.41
2022-10-01T05:14:49.200Z,950.52
2022-10-01T05:15:49.230Z,950.53
2022-10-01T05:16:49.148Z,950.50
2022-10-01T05:17:49.134Z,950.58
2022-10-01T05:18:49.140Z,950.59
2022-10-01T05:19:49.108Z,950.66
2022-10-01T05:20:49.104Z,950.68
2022-10-01T05:21:49.092Z,950.68
2022-10-01T05:22:49.083Z,950.67
2022-10-01T05:23:49.092Z,950.69
2022-10-01T05:24:49.060Z,950.70
2022-10-01T05:25:49.061Z,950.70
2022-10-01T05:26:49.037Z,950.64
2022-10-01T05:27:49.067Z,950.63
2022-10-01T05:28:49.027Z,950.61
2022-10-01T05:29:49.004Z,950.63
2022-10-01T05:30:49.005Z,950.64
2022-10-01T05:31:49.082Z,950.69
2022-10-01T05:32:48.962Z,950.66
2022-10-01T05:33:48.961Z,950.65
2022-10-01T05:34:53.482Z,950.69
2022-10-01T05:35:48.953Z,950.69
2022-10-01T05:36:48.943Z,950.77
2022-10-01T05:37:48.913Z,950.77
2022-10-01T05:38:48.898Z,950.81
2022-10-01T05:39:48.889Z,950.76
2022-10-01T05:40:48.884Z,950.77
2022-10-01T05:41:48.881Z,950.81
2022-10-01T05:42:48.849Z,950.80
2022-10-01T05:43:48.840Z,950.86
2022-10-01T05:44:48.832Z,950.80
2022-10-01T05:45:48.849Z,950.77
2022-10-01T05:46:48.808Z,950.78
2022-10-01T05:47:48.830Z,950.83
2022-10-01T05:48:48.778Z,950.73
2022-10-01T05:49:48.797Z,950.71
2022-10-01T05:50:48.757Z,950.73
2022-10-01T05:51:48.769Z,950.78
2022-10-01T05:52:48.738Z,950.70
2022-10-01T05:53:50.543Z,950.76
2022-10-01T05:54:48.727Z,950.80
2022-10-01T05:55:48.727Z,950.77
2022-10-01T05:56:48.694Z,950.76
2022-10-01T05:57:48.696Z,950.80
2022-10-01T05:58:48.666Z,950.80
2022-10-01T05:59:48.669Z,950.83
2022-10-01T06:00:48.657Z,950.88
2022-10-01T06:01:48.711Z,950.86
2022-10-01T06:02:48.759Z,950.85
2022-10-01T06:03:48.614Z,950.84
2022-10-01T06:04:48.619Z,950.83
2022-10-01T06:05:48.598Z,950.82
2022-10-01T06:06:48.577Z,950.81
2022-10-01T06:07:48.590Z,950.79
2022-10-01T06:08:48.554Z,950.84
2022-10-01T06:09:48.558Z,950.84
2022-10-01T06:10:48.533Z,950.81
2022-10-01T06:11:48.525Z,950.80
2022-10-01T06:12:48.513Z,950.80
2022-10-01T06:13:48.513Z,950.73
2022-10-01T06:14:48.484Z,950.76
2022-10-01T06:15:48.482Z,950.75
2022-10-01T06:16:48.533Z,950.79
2022-10-01T06:17:48.453Z,950.78
2022-10-01T06:18:48.452Z,950.72
2022-10-01T06:19:48.458Z,950.76
2022-10-01T06:20:48.424Z,950.69
2022-10-01T06:21:48.423Z,950.73
2022-10-01T06:22:48.393Z,950.70
2022-10-01T06:23:48.409Z,950.74
2022-10-01T06:24:48.384Z,950.75
2022-10-01T06:25:48.362Z,950.77
2022-10-01T06:26:48.353Z,950.73
2022-10-01T06:27:48.355Z,950.77
2022-10-01T06:28:48.348Z,950.77
2022-10-01T06:29:48.333Z,950.81
2022-10-01T06:30:48.321Z,950.74
2022-10-01T06:31:48.322Z,950.75
2022-10-01T06:32:48.281Z,950.72
2022-10-01T06:33:48.272Z,950.75
2022-10-01T06:34:48.259Z,950.76
2022-10-01T06:35:48.265Z,950.76
2022-10-01T06:36:48.229Z,950.74
2022-10-01T06:37:48.230Z,950.71
2022-10-01T06:38:48.211Z,950.76
2022-10-01T06:39:48.227Z,950.76
2022-10-01T06:40:48.206Z,950.72
2022-10-01T06:41:48.178Z,950.78
2022-10-01T06:42:48.168Z,950.68
2022-10-01T06:43:48.172Z,950.70
2022-10-01T06:44:48.139Z,950.67
2022-10-01T06:45:48.188Z,950.72
2022-10-01T06:46:48.132Z,950.66
2022-10-01T06:47:48.110Z,950.71
2022-10-01T06:48:48.105Z,950.68
2022-10-01T06:49:48.100Z,950.70
2022-10-01T06:50:48.079Z,950.66
2022-10-01T06:51:48.076Z,950.69
2022-10-01T06:52:48.058Z,950.65
2022-10-01T06:53:48.044Z,950.69
2022-10-01T06:54:48.037Z,950.68
2022-10-01T06:55:48.016Z,950.72
2022-10-01T06:56:48.041Z,950.72
2022-10-01T06:57:48.006Z,950.69
2022-10-01T06:58:47.986Z,950.67
2022-10-01T06:59:47.993Z,950.66
2022-10-01T07:00:48.027Z,950.61
2022-10-01T07:01:48.007Z,950.67
2022-10-01T07:02:47.989Z,950.64
2022-10-01T07:03:47.932Z,950.65
2022-10-01T07:04:47.925Z,950.64
2022-10-01T07:05:47.921Z,950.67
2022-10-01T07:06:47.893Z,950.57
2022-10-01T07:07:47.893Z,950.56
2022-10-01T07:08:47.866Z,950.58
2022-10-01T07:09:47.863Z,950.54
2022-10-01T07:10:47.842Z,950.55
2022-10-01T07:11:47.843Z,950.57
2022-10-01T07:12:47.832Z,950.57
2022-10-01T07:13:52.328Z,950.56
2022-10-01T07:14:48.794Z,950.51
2022-10-01T07:15:47.797Z,950.55
2022-10-01T07:16:47.818Z,950.41
2022-10-01T07:17:47.808Z,950.41
2022-10-01T07:18:47.752Z,950.39
2022-10-01T07:19:47.749Z,950.33
2022-10-01T07:20:47.733Z,950.35
2022-10-01T07:21:47.731Z,950.46
2022-10-01T07:22:47.722Z,950.49
2022-10-01T07:23:47.710Z,950.44
2022-10-01T07:24:47.691Z,950.42
2022-10-01T07:25:47.683Z,950.37
2022-10-01T07:26:47.660Z,950.38
2022-10-01T07:27:47.696Z,950.30
2022-10-01T07:28:47.671Z,950.30
2022-10-01T07:29:47.633Z,950.33
2022-10-01T07:30:47.623Z,950.34
2022-10-01T07:31:47.638Z,950.30
2022-10-01T07:32:47.682Z,950.29
2022-10-01T07:33:48.599Z,950.25
2022-10-01T07:34:47.580Z,950.33
2022-10-01T07:35:47.572Z,950.32
2022-10-01T07:36:47.549Z,950.25
2022-10-01T07:37:47.546Z,950.28
2022-10-01T07:38:47.531Z,950.23
2022-10-01T07:39:47.529Z,950.20
2022-10-01T07:40:47.508Z,950.23
2022-10-01T07:41:47.499Z,950.21
2022-10-01T07:42:47.492Z,950.22
2022-10-01T07:43:47.469Z,950.20
2022-10-01T07:44:47.484Z,950.26
2022-10-01T07:45:47.515Z,950.27
2022-10-01T07:46:47.439Z,950.28
2022-10-01T07:47:47.424Z,950.29
2022-10-01T07:48:47.417Z,950.31
2022-10-01T07:49:47.438Z,950.30
2022-10-01T07:50:47.396Z,950.27
2022-10-01T07:51:47.425Z,950.29
2022-10-01T07:52:47.385Z,950.23
2022-10-01T07:53:47.356Z,950.21
2022-10-01T07:54:47.346Z,950.23
2022-10-01T07:55:47.356Z,950.34
2022-10-01T07:56:47.326Z,950.25
2022-10-01T07:57:47.350Z,950.32
2022-10-01T07:58:47.295Z,950.31
2022-10-01T07:59:47.306Z,950.29
2022-10-01T08:00:47.327Z,950.21
2022-10-01T08:01:47.317Z,950.22
2022-10-01T08:02:47.256Z,950.20
2022-10-01T08:03:47.256Z,950.27
2022-10-01T08:04:47.238Z,950.21
2022-10-01T08:05:47.214Z,950.33
2022-10-01T08:06:47.245Z,950.28
2022-10-01T08:07:47.214Z,950.33
2022-10-01T08:08:47.184Z,950.25
2022-10-01T08:09:47.189Z,950.23
2022-10-01T08:10:47.171Z,950.23
2022-10-01T08:11:47.156Z,950.26
2022-10-01T08:12:47.144Z,950.22
2022-10-01T08:13:47.136Z,950.23
2022-10-01T08:14:47.141Z,950.21
2022-10-01T08:15:47.102Z,950.19
2022-10-01T08:16:47.148Z,950.23
2022-10-01T08:17:47.082Z,950.15
2022-10-01T08:18:47.083Z,950.18
2022-10-01T08:19:47.079Z,950.19
2022-10-01T08:20:47.066Z,950.17
2022-10-01T08:21:47.031Z,950.15
2022-10-01T08:22:47.055Z,950.15
2022-10-01T08:23:47.041Z,950.08
2022-10-01T08:24:47.010Z,950.07
2022-10-01T08:25:47.006Z,949.99
2022-10-01T08:26:46.980Z,950.08
2022-10-01T08:27:47.035Z,950.07
2022-10-01T08:28:46.960Z,950.06
2022-10-01T08:29:46.962Z,950.04
2022-10-01T08:30:46.952Z,950.00
2022-10-01T08:31:46.956Z,950.05
2022-10-01T08:32:46.917Z,950.09
2022-10-01T08:33:46.927Z,950.03
2022-10-01T08:34:46.909Z,950.01
2022-10-01T08:35:46.884Z,950.04
2022-10-01T08:36:46.882Z,949.99
2022-10-01T08:37:46.896Z,949.98
2022-10-01T08:38:46.849Z,949.96
2022-10-01T08:39:46.848Z,949.97
2022-10-01T08:40:46.828Z,949.99
2022-10-01T08:41:46.818Z,950.01
2022-10-01T08:42:46.811Z,949.91
2022-10-01T08:43:46.800Z,950.01
2022-10-01T08:44:46.778Z,950.05
2022-10-01T08:45:46.817Z,949.94
2022-10-01T08:46:46.760Z,949.89
2022-10-01T08:47:46.747Z,950.00
2022-10-01T08:48:46.747Z,949.96
2022-10-01T08:49:46.729Z,949.94
2022-10-01T08:50:46.721Z,949.93
2022-10-01T08:51:46.795Z,949.97
2022-10-01T08:52:46.695Z,949.96
2022-10-01T08:53:46.678Z,949.96
2022-10-01T08:54:46.728Z,949.94
2022-10-01T08:55:46.691Z,949.99
2022-10-01T08:56:46.646Z,949.92
2022-10-01T08:57:46.637Z,949.93
2022-10-01T08:58:46.626Z,949.93
2022-10-01T08:59:46.614Z,950.04
2022-10-01T09:00:46.670Z,949.97
2022-10-01T09:01:46.683Z,949.98
2022-10-01T09:02:46.585Z,950.12
2022-10-01T09:03:46.566Z,950.11
2022-10-01T09:04:46.657Z,950.09
2022-10-01T09:05:46.545Z,950.08
2022-10-01T09:06:46.542Z,950.05
2022-10-01T09:07:46.515Z,950.02
2022-10-01T09:08:46.562Z,950.04
2022-10-01T09:09:46.524Z,949.99
2022-10-01T09:10:46.492Z,950.04
2022-10-01T09:11:46.508Z,949.99
2022-10-01T09:12:46.588Z,950.03
2022-10-01T09:13:50.123Z,950.02
2022-10-01T09:14:46.464Z,950.03
2022-10-01T09:15:46.474Z,950.00
2022-10-01T09:16:46.505Z,950.04
2022-10-01T09:17:46.414Z,950.00
2022-10-01T09:18:46.405Z,949.97
2022-10-01T09:19:47.983Z,949.98
2022-10-01T09:20:46.373Z,950.02
2022-10-01T09:21:46.354Z,950.00
2022-10-01T09:22:46.354Z,950.03
2022-10-01T09:23:46.335Z,950.02
2022-10-01T09:24:46.333Z,949.97
2022-10-01T09:25:46.323Z,949.96
2022-10-01T09:26:46.298Z,949.93
2022-10-01T09:27:46.411Z,949.96
2022-10-01T09:28:46.290Z,949.96
2022-10-01T09:29:46.285Z,949.91
2022-10-01T09:30:46.270Z,949.96
2022-10-01T09:31:46.329Z,949.96
2022-10-01T09:32:46.240Z,949.95
2022-10-01T09:33:46.230Z,949.88
2022-10-01T09:34:46.220Z,949.91
2022-10-01T09:35:46.224Z,949.93
2022-10-01T09:36:46.209Z,949.90
2022-10-01T09:37:46.184Z,949.90
2022-10-01T09:38:46.163Z,949.91
2022-10-01T09:39:46.189Z,949.93
2022-10-01T09:40:47.099Z,949.87
2022-10-01T09:41:46.142Z,949.94
2022-10-01T09:42:46.150Z,949.94
2022-10-01T09:43:46.161Z,949.96
2022-10-01T09:44:46.158Z,949.96
2022-10-01T09:45:46.254Z,949.97
2022-10-01T09:46:46.093Z,949.88
2022-10-01T09:47:46.058Z,949.94
2022-10-01T09:48:46.070Z,950.01
2022-10-01T09:49:46.048Z,950.06
2022-10-01T09:50:46.019Z,949.99
2022-10-01T09:51:46.153Z,949.98
2022-10-01T09:52:45.999Z,950.00
2022-10-01T09:53:46.008Z,949.94
2022-10-01T09:54:45.982Z,950.07
2022-10-01T09:55:45.968Z,950.00
2022-10-01T09:56:45.960Z,950.03
2022-10-01T09:57:46.030Z,950.05
2022-10-01T09:58:45.927Z,950.01
2022-10-01T09:59:45.931Z,949.99
2022-10-01T10:00:45.909Z,950.00
2022-10-01T10:01:46.045Z,949.99
2022-10-01T10:02:49.148Z,949.96
2022-10-01T10:03:45.889Z,949.93
2022-10-01T10:04:45.856Z,949.97
2022-10-01T10:05:45.879Z,949.91
2022-10-01T10:06:45.837Z,949.97
2022-10-01T10:07:45.829Z,949.90
2022-10-01T10:08:45.828Z,949.88
2022-10-01T10:09:45.817Z,949.89
2022-10-01T10:10:45.797Z,949.89
2022-10-01T10:11:45.780Z,949.81
2022-10-01T10:12:45.767Z,949.94
2022-10-01T10:13:45.778Z,949.90
2022-10-01T10:14:45.746Z,949.91
2022-10-01T10:15:45.758Z,949.90
2022-10-01T10:16:45.729Z,949.95
2022-10-01T10:17:45.715Z,949.91
2022-10-01T10:18:45.696Z,949.87
2022-10-01T10:19:45.744Z,949.95
2022-10-01T10:20:45.694Z,949.88
2022-10-01T10:21:45.676Z,949.91
2022-10-01T10:22:45.644Z,949.87
2022-10-01T10:23:45.654Z,949.91
2022-10-01T10:24:45.693Z,949.91
2022-10-01T10:25:45.620Z,949.92
2022-10-01T10:26:45.637Z,949.97
2022-10-01T10:27:45.655Z,949.92
2022-10-01T10:28:45.649Z,949.99
2022-10-01T10:29:45.591Z,949.95
2022-10-01T10:30:45.556Z,949.94
2022-10-01T10:31:45.908Z,949.98
2022-10-01T10:32:46.877Z,950.04
2022-10-01T10:33:45.524Z,949.99
2022-10-01T10:34:45.703Z,949.98
2022-10-01T10:35:45.510Z,949.95
2022-10-01T10:36:45.493Z,950.03
2022-10-01T10:37:45.503Z,950.08
2022-10-01T10:38:45.466Z,949.98
2022-10-01T10:39:45.454Z,950.15
2022-10-01T10:40:45.453Z,950.11
2022-10-01T10:41:45.431Z,950.15
2022-10-01T10:42:45.430Z,950.16
2022-10-01T10:43:45.411Z,950.15
2022-10-01T10:44:45.410Z,950.13
2022-10-01T10:45:45.390Z,950.07
2022-10-01T10:46:46.334Z,950.18
2022-10-01T10:47:45.371Z,950.15
2022-10-01T10:48:45.350Z,950.10
2022-10-01T10:49:45.367Z,950.13
2022-10-01T10:50:45.343Z,950.02
2022-10-01T10:51:45.431Z,950.07
2022-10-01T10:52:45.892Z,950.06
2022-10-01T10:53:45.319Z,950.02
2022-10-01T10:54:45.299Z,950.08
2022-10-01T10:55:45.310Z,950.00
2022-10-01T10:56:45.284Z,950.00
2022-10-01T10:57:45.292Z,949.94
2022-10-01T10:58:52.794Z,950.02
2022-10-01T10:59:45.231Z,950.07
2022-10-01T11:00:45.242Z,949.98
2022-10-01T11:01:45.271Z,950.02
2022-10-01T11:02:45.220Z,950.06
2022-10-01T11:03:45.194Z,950.05
2022-10-01T11:04:45.191Z,950.05
2022-10-01T11:05:45.173Z,950.17
2022-10-01T11:06:45.173Z,950.14
2022-10-01T11:07:45.143Z,950.19
2022-10-01T11:08:45.133Z,950.18
2022-10-01T11:09:45.132Z,950.27
2022-10-01T11:10:45.112Z,950.25
2022-10-01T11:11:45.096Z,950.22
2022-10-01T11:12:45.102Z,950.19
2022-10-01T11:13:45.088Z,950.25
2022-10-01T11:14:45.063Z,950.30
2022-10-01T11:15:45.093Z,950.23
2022-10-01T11:16:45.041Z,950.24
2022-10-01T11:17:45.057Z,950.27
2022-10-01T11:18:45.020Z,950.18
2022-10-01T11:19:45.018Z,950.16
2022-10-01T11:20:44.990Z,950.25
2022-10-01T11:21:45.002Z,950.24
2022-10-01T11:22:44.979Z,950.25
2022-10-01T11:23:44.971Z,950.21
2022-10-01T11:24:44.960Z,950.32
2022-10-01T11:25:44.970Z,950.28
2022-10-01T11:26:44.930Z,950.28
2022-10-01T11:27:45.025Z,950.25
2022-10-01T11:28:44.922Z,950.31
2022-10-01T11:29:44.910Z,950.34
2022-10-01T11:30:44.893Z,950.32
2022-10-01T11:31:44.918Z,950.30
2022-10-01T11:32:44.874Z,950.32
2022-10-01T11:33:44.872Z,950.38
2022-10-01T11:34:44.841Z,950.36
2022-10-01T11:35:44.841Z,950.44
2022-10-01T11:36:44.837Z,950.40
2022-10-01T11:37:44.816Z,950.41
2022-10-01T11:38:44.807Z,950.43
2022-10-01T11:39:44.798Z,950.44
2022-10-01T11:40:44.778Z,950.42
2022-10-01T11:41:44.757Z,950.48
2022-10-01T11:42:44.748Z,950.48
2022-10-01T11:43:44.767Z,950.43
2022-10-01T11:44:44.756Z,950.54
2022-10-01T11:45:44.716Z,950.51
2022-10-01T11:46:44.737Z,950.47
2022-10-01T11:47:44.697Z,950.54
2022-10-01T11:48:44.693Z,950.46
2022-10-01T11:49:44.686Z,950.49
2022-10-01T11:50:44.665Z,950.53
2022-10-01T11:51:44.654Z,950.47
2022-10-01T11:52:44.636Z,950.51
2022-10-01T11:53:44.643Z,950.54
2022-10-01T11:54:44.614Z,950.50
2022-10-01T11:55:44.604Z,950.51
2022-10-01T11:56:44.595Z,950.42
2022-10-01T11:57:44.589Z,950.45
2022-10-01T11:58:44.593Z,950.45
2022-10-01T11:59:44.556Z,950.46
2022-10-01T12:00:44.556Z,950.41
2022-10-01T12:01:44.596Z,950.44
2022-10-01T12:02:44.526Z,950.42
2022-10-01T12:03:44.522Z,950.45
2022-10-01T12:04:44.533Z,950.44
2022-10-01T12:05:44.536Z,950.43
2022-10-01T12:06:44.501Z,950.40
2022-10-01T12:07:44.472Z,950.36
2022-10-01T12:08:44.455Z,950.40
2022-10-01T12:09:44.450Z,950.46
2022-10-01T12:10:44.452Z,950.42
2022-10-01T12:11:44.422Z,950.47
2022-10-01T12:12:44.410Z,950.48
2022-10-01T12:13:44.413Z,950.52
2022-10-01T12:14:44.398Z,950.43
2022-10-01T12:15:44.416Z,950.45
2022-10-01T12:16:44.408Z,950.40
2022-10-01T12:17:44.357Z,950.44
2022-10-01T12:18:44.351Z,950.37
2022-10-01T12:19:44.333Z,950.32
2022-10-01T12:20:44.320Z,950.40
2022-10-01T12:21:44.311Z,950.34
2022-10-01T12:22:44.319Z,950.37
2022-10-01T12:23:44.289Z,950.38
2022-10-01T12:24:44.271Z,950.43
2022-10-01T12:25:44.273Z,950.44
2022-10-01T12:26:44.257Z,950.48
2022-10-01T12:27:44.385Z,950.44
2022-10-01T12:28:47.898Z,950.44